EGNS

Isle of Man Airport

Castletown, Isle of Man
METAR EGNS 181050Z 21017KT 9999 FEW020 BKN038 15/11 Q1016 NOSIG
Observed Flight Rules
Jun-18 @ 10:50 UTC (13 minutes ago) Visual Flight Rules
Wind Visibility Clouds
210° at 17 knots 10,000+ meters
  • Few at 2,000' AGL
  • Broken at 3,800' AGL
Temperatures Readings
Current 15°C / 59°F
Dewpoint 11°C / 52°F
Humidity 77%
Altimeter 30" Hg
Pressure 1016 hPa
Elevation 17
METAR EGNS 181050Z 21017KT 9999 FEW020 BKN038 15/11 Q1016 NOSIG
Observed Flight Rules
Jun-18 @ 10:50 UTC
(13 minutes ago)
VFR
Wind Visibility
210° at 17 knots 10,000+ meters
Clouds
  • Few at 2,000' AGL
  • Broken at 3,800' AGL
Temperature Dewpoint
15°C / 59°F 11°C / 52°F
Humidity Altimeter Pressure
77% 30" Hg 1016 hPa